createdAt,value
2023-02-04T00:00:13.442Z,99208.56
2023-02-04T00:02:41.376Z,99191.19
2023-02-04T00:05:08.379Z,99190.56
2023-02-04T00:07:35.368Z,99186.81
2023-02-04T00:10:02.676Z,99185.84
2023-02-04T00:12:29.534Z,99180.81
2023-02-04T00:14:56.118Z,99191.25
2023-02-04T00:17:22.804Z,99179.56
2023-02-04T00:19:49.451Z,99201.16
2023-02-04T00:22:16.035Z,99190.84
2023-02-04T00:24:48.350Z,99201.91
2023-02-04T00:27:14.929Z,99207.72
2023-02-04T00:29:41.676Z,99212.41
2023-02-04T00:32:08.506Z,99203.78
2023-02-04T00:34:35.121Z,99191.47
2023-02-04T00:37:02.975Z,99194.41
2023-02-04T00:39:29.595Z,99160.94
2023-02-04T00:41:56.087Z,99175.25
2023-02-04T00:44:22.697Z,99174.81
2023-02-04T00:46:49.863Z,99167.84
2023-02-04T00:49:16.412Z,99141.13
2023-02-04T00:51:46.465Z,99181.56
2023-02-04T00:54:15.885Z,99169.94
2023-02-04T00:56:43.885Z,99124.34
2023-02-04T00:59:10.887Z,99178.13
2023-02-04T01:01:37.748Z,99176.31
2023-02-04T01:04:04.784Z,99195.53
2023-02-04T01:06:31.408Z,99197.78
2023-02-04T01:08:57.971Z,99214.22
2023-02-04T01:11:24.750Z,99146.84
2023-02-04T01:13:51.581Z,99200.09
2023-02-04T01:16:18.421Z,99180.59
2023-02-04T01:18:45.721Z,99213.06
2023-02-04T01:21:12.269Z,99218.72
2023-02-04T01:23:40.307Z,99192.78
2023-02-04T01:26:07.695Z,99159.03
2023-02-04T01:28:34.346Z,99223.91
2023-02-04T01:31:01.112Z,99219.00
2023-02-04T01:33:27.962Z,99216.47
2023-02-04T01:35:54.674Z,99186.22
2023-02-04T01:38:21.288Z,99206.53
2023-02-04T01:40:48.082Z,99205.56
2023-02-04T01:43:14.820Z,99204.25
2023-02-04T01:45:41.444Z,99212.66
2023-02-04T01:48:08.187Z,99210.38
2023-02-04T01:50:37.110Z,99201.97
2023-02-04T01:53:03.846Z,99184.28
2023-02-04T01:55:33.307Z,99195.06
2023-02-04T01:58:00.246Z,99197.59
2023-02-04T02:00:32.880Z,99191.25
2023-02-04T02:03:00.521Z,99191.44
2023-02-04T02:05:49.144Z,99182.63
2023-02-04T02:08:16.752Z,99177.81
2023-02-04T02:10:46.716Z,99162.84
2023-02-04T02:13:17.363Z,99170.44
2023-02-04T02:15:45.137Z,99170.84
2023-02-04T02:18:12.048Z,99181.66
2023-02-04T02:20:38.956Z,99166.63
2023-02-04T02:23:05.474Z,99161.13
2023-02-04T02:25:32.442Z,99143.75
2023-02-04T02:28:01.726Z,99134.00
2023-02-04T02:30:29.592Z,99090.41
2023-02-04T02:32:57.516Z,99099.53
2023-02-04T02:35:24.271Z,99135.66
2023-02-04T02:37:50.933Z,99092.22
2023-02-04T02:40:18.001Z,99051.88
2023-02-04T02:42:48.549Z,99081.41
2023-02-04T02:45:34.591Z,99095.91
2023-02-04T02:48:04.901Z,99080.59
2023-02-04T02:50:33.819Z,99091.47
2023-02-04T02:53:01.449Z,99101.69
2023-02-04T02:55:28.889Z,99096.03
2023-02-04T02:57:57.315Z,99087.38
2023-02-04T03:00:26.209Z,99110.91
2023-02-04T03:03:07.463Z,99099.72
2023-02-04T03:05:38.904Z,99060.44
2023-02-04T03:08:06.047Z,99095.25
2023-02-04T03:10:33.012Z,99066.66
2023-02-04T03:13:00.224Z,99077.19
2023-02-04T03:15:27.107Z,99046.72
2023-02-04T03:17:56.622Z,99077.63
2023-02-04T03:20:30.784Z,99077.63
2023-02-04T03:22:58.537Z,99080.03
2023-02-04T03:25:29.377Z,99082.59
2023-02-04T03:27:58.829Z,99067.44
2023-02-04T03:30:26.717Z,99044.75
2023-02-04T03:32:53.846Z,99055.53
2023-02-04T03:35:21.056Z,99060.00
2023-02-04T03:37:47.669Z,99034.00
2023-02-04T03:40:15.322Z,99056.81
2023-02-04T03:42:41.886Z,99046.56
2023-02-04T03:45:08.757Z,99069.28
2023-02-04T03:47:35.275Z,99074.00
2023-02-04T03:50:01.840Z,99039.44
2023-02-04T03:52:28.371Z,99058.03
2023-02-04T03:54:54.930Z,99048.69
2023-02-04T03:57:21.668Z,99055.53
2023-02-04T03:59:48.285Z,99049.75
2023-02-04T04:02:14.932Z,99065.47
2023-02-04T04:04:41.539Z,99058.75
2023-02-04T04:07:08.193Z,99055.84
2023-02-04T04:09:34.731Z,99009.78
2023-02-04T04:12:01.745Z,99034.53
2023-02-04T04:14:28.322Z,99041.09
2023-02-04T04:16:54.937Z,99055.81
2023-02-04T04:19:21.502Z,99059.56
2023-02-04T04:21:48.096Z,99067.00
2023-02-04T04:24:14.617Z,99073.16
2023-02-04T04:26:41.135Z,99045.34
2023-02-04T04:29:07.755Z,99068.41
2023-02-04T04:31:34.438Z,99076.38
2023-02-04T04:34:02.047Z,99072.63
2023-02-04T04:36:28.622Z,99071.63
2023-02-04T04:38:55.190Z,99074.31
2023-02-04T04:41:21.765Z,99036.09
2023-02-04T04:43:48.328Z,99075.97
2023-02-04T04:46:15.067Z,99067.16
2023-02-04T04:48:41.844Z,99077.66
2023-02-04T04:51:08.335Z,99030.63
2023-02-04T04:53:34.991Z,99032.88
2023-02-04T04:56:01.558Z,99084.09
2023-02-04T04:58:28.153Z,99073.47
2023-02-04T05:00:54.750Z,99060.84
2023-02-04T05:03:21.332Z,99069.53
2023-02-04T05:05:47.940Z,99080.28
2023-02-04T05:08:16.855Z,99073.69
2023-02-04T05:10:44.025Z,99045.06
2023-02-04T05:13:10.767Z,99090.59
2023-02-04T05:15:37.351Z,99100.56
2023-02-04T05:18:04.354Z,99083.28
2023-02-04T05:20:31.462Z,99110.41
2023-02-04T05:23:01.202Z,99067.91
2023-02-04T05:25:28.866Z,99084.72
2023-02-04T05:27:55.565Z,99101.16
2023-02-04T05:30:22.448Z,99108.06
2023-02-04T05:32:49.094Z,99075.06
2023-02-04T05:35:15.944Z,99114.78
2023-02-04T05:37:42.602Z,99120.22
2023-02-04T05:40:09.963Z,99061.81
2023-02-04T05:42:36.551Z,99085.22
2023-02-04T05:45:03.224Z,99101.72
2023-02-04T05:47:29.726Z,99096.94
2023-02-04T05:49:56.295Z,99071.69
2023-02-04T05:52:22.844Z,99069.19
2023-02-04T05:54:49.405Z,99063.66
2023-02-04T05:57:15.993Z,99061.41
2023-02-04T05:59:42.586Z,99108.31
2023-02-04T06:02:09.179Z,99100.50
2023-02-04T06:04:35.751Z,99111.63
2023-02-04T06:07:03.302Z,99089.16
2023-02-04T06:09:29.869Z,99068.38
2023-02-04T06:11:57.582Z,99104.69
2023-02-04T06:14:24.219Z,99079.16
2023-02-04T06:16:50.898Z,99089.06
2023-02-04T06:19:17.592Z,99048.91
2023-02-04T06:21:44.395Z,99084.72
2023-02-04T06:24:11.049Z,99085.91
2023-02-04T06:26:37.584Z,99104.19
2023-02-04T06:29:04.259Z,99061.41
2023-02-04T06:31:31.059Z,99101.06
2023-02-04T06:33:57.725Z,99087.19
2023-02-04T06:36:24.401Z,99078.41
2023-02-04T06:38:50.950Z,99043.34
2023-02-04T06:41:17.536Z,99072.28
2023-02-04T06:43:44.187Z,99071.22
2023-02-04T06:46:10.817Z,99118.59
2023-02-04T06:48:37.404Z,99114.38
2023-02-04T06:51:04.087Z,99114.84
2023-02-04T06:53:30.783Z,99124.97
2023-02-04T06:55:57.357Z,99123.16
2023-02-04T06:58:23.920Z,99114.22
2023-02-04T07:00:50.504Z,99084.69
2023-02-04T07:03:17.026Z,99086.97
2023-02-04T07:05:43.607Z,99117.28
2023-02-04T07:08:10.200Z,99122.19
2023-02-04T07:10:37.118Z,99093.78
2023-02-04T07:13:03.779Z,99110.13
2023-02-04T07:15:31.589Z,99109.59
2023-02-04T07:17:58.203Z,99090.91
2023-02-04T07:20:24.743Z,99119.59
2023-02-04T07:22:51.265Z,99126.34
2023-02-04T07:25:17.970Z,99107.63
2023-02-04T07:27:44.983Z,99136.38
2023-02-04T07:30:12.076Z,99132.09
2023-02-04T07:32:38.588Z,99141.81
2023-02-04T07:35:05.496Z,99115.22
2023-02-04T07:37:32.061Z,99152.16
2023-02-04T07:39:58.626Z,99148.25
2023-02-04T07:42:25.189Z,99147.88
2023-02-04T07:44:59.603Z,99177.66
2023-02-04T07:47:26.136Z,99156.41
2023-02-04T07:49:54.661Z,99160.69
2023-02-04T07:52:21.244Z,99127.53
2023-02-04T07:54:47.816Z,99162.28
2023-02-04T07:57:14.335Z,99163.63
2023-02-04T07:59:40.930Z,99169.34
2023-02-04T08:02:07.706Z,99161.94
2023-02-04T08:04:34.431Z,99172.94
2023-02-04T08:07:01.026Z,99118.25
2023-02-04T08:09:27.774Z,99114.69
2023-02-04T08:11:54.395Z,99169.16
2023-02-04T08:14:21.224Z,99162.22
2023-02-04T08:16:47.816Z,99159.13
2023-02-04T08:19:18.882Z,99180.63
2023-02-04T08:21:48.404Z,99143.47
2023-02-04T08:24:15.916Z,99166.03
2023-02-04T08:26:43.725Z,99149.66
2023-02-04T08:29:10.374Z,99159.66
2023-02-04T08:31:38.057Z,99152.28
2023-02-04T08:34:05.188Z,99147.84
2023-02-04T08:36:32.507Z,99151.03
2023-02-04T08:38:59.246Z,99140.84
2023-02-04T08:41:25.809Z,99138.34
2023-02-04T08:43:52.555Z,99144.22
2023-02-04T08:46:19.224Z,99129.63
2023-02-04T08:48:45.791Z,99143.38
2023-02-04T08:51:12.325Z,99160.81
2023-02-04T08:53:40.685Z,99153.09
2023-02-04T08:56:09.025Z,99164.88
2023-02-04T08:58:35.597Z,99106.09
2023-02-04T09:01:02.793Z,99136.63
2023-02-04T09:03:29.704Z,99135.09
2023-02-04T09:05:56.376Z,99118.31
2023-02-04T09:08:22.940Z,99143.16
2023-02-04T09:10:49.535Z,99143.53
2023-02-04T09:13:16.188Z,99147.19
2023-02-04T09:15:42.746Z,99143.53
2023-02-04T09:18:16.708Z,99146.25
2023-02-04T09:20:44.771Z,99117.22
2023-02-04T09:23:12.420Z,99138.47
2023-02-04T09:25:39.468Z,99164.88
2023-02-04T09:28:06.690Z,99119.50
2023-02-04T09:30:33.904Z,99120.06
2023-02-04T09:33:00.666Z,99134.47
2023-02-04T09:35:27.764Z,99125.88
2023-02-04T09:37:54.391Z,99140.91
2023-02-04T09:40:21.357Z,99123.41
2023-02-04T09:42:52.220Z,99118.47
2023-02-04T09:45:24.337Z,99136.44
2023-02-04T09:47:51.732Z,99146.69
2023-02-04T09:50:22.026Z,99139.63
2023-02-04T09:52:51.062Z,99115.75
2023-02-04T09:55:20.052Z,99142.34
2023-02-04T09:57:47.472Z,99112.81
2023-02-04T10:00:20.815Z,99147.22
2023-02-04T10:02:47.900Z,99151.75
2023-02-04T10:05:37.261Z,99152.69
2023-02-04T10:08:05.019Z,99148.69
2023-02-04T10:10:32.028Z,99148.88
2023-02-04T10:13:02.178Z,99119.09
2023-02-04T10:15:28.725Z,99115.00
2023-02-04T10:18:03.700Z,99147.09
2023-02-04T10:20:30.853Z,99154.19
2023-02-04T10:22:57.636Z,99143.25
2023-02-04T10:25:26.280Z,99106.84
2023-02-04T10:27:59.508Z,99136.75
2023-02-04T10:30:33.901Z,99129.75
2023-02-04T10:33:11.882Z,99150.03
2023-02-04T10:35:50.294Z,99120.50
2023-02-04T10:38:16.868Z,99132.22
2023-02-04T10:40:43.966Z,99155.53
2023-02-04T10:43:11.546Z,99154.31
2023-02-04T10:45:38.744Z,99121.84
2023-02-04T10:48:05.610Z,99128.59
2023-02-04T10:50:33.099Z,99141.13
2023-02-04T10:53:18.948Z,99143.16
2023-02-04T10:55:47.463Z,99143.16
2023-02-04T10:58:19.957Z,99090.47
2023-02-04T11:00:46.471Z,99137.09
2023-02-04T11:03:30.893Z,99134.03
2023-02-04T11:06:00.261Z,99121.09
2023-02-04T11:08:31.947Z,99136.31
2023-02-04T11:11:19.539Z,99136.34
2023-02-04T11:13:55.776Z,99144.38
2023-02-04T11:16:28.792Z,99145.50
2023-02-04T11:19:05.889Z,99134.69
2023-02-04T11:21:32.622Z,99138.41
2023-02-04T11:24:11.101Z,99142.59
2023-02-04T11:26:41.566Z,99144.56
2023-02-04T11:29:16.557Z,99122.31
2023-02-04T11:31:49.228Z,99153.13
2023-02-04T11:34:15.800Z,99143.22
2023-02-04T11:37:01.163Z,99137.69
2023-02-04T11:39:43.021Z,99128.00
2023-02-04T11:42:21.766Z,99133.75
2023-02-04T11:44:59.228Z,99127.84
2023-02-04T11:47:27.818Z,99129.88
2023-02-04T11:49:59.289Z,99120.78
2023-02-04T11:52:25.872Z,99120.16
2023-02-04T11:55:00.208Z,99114.09
2023-02-04T11:57:27.556Z,99117.00
2023-02-04T11:59:55.100Z,99123.59
2023-02-04T12:02:28.252Z,99125.09
2023-02-04T12:05:15.675Z,99125.69
2023-02-04T12:07:42.718Z,99107.28
2023-02-04T12:10:15.420Z,99122.91
2023-02-04T12:12:55.720Z,99105.22
2023-02-04T12:15:35.969Z,99112.19
2023-02-04T12:18:08.325Z,99121.00
2023-02-04T12:20:36.191Z,99084.50
2023-02-04T12:23:03.005Z,99112.00
2023-02-04T12:25:30.150Z,99098.75
2023-02-04T12:27:57.209Z,99116.16
2023-02-04T12:30:26.174Z,99111.88
2023-02-04T12:32:53.383Z,99099.50
2023-02-04T12:35:20.372Z,99121.78
2023-02-04T12:37:46.913Z,99122.22
2023-02-04T12:40:16.284Z,99117.63
2023-02-04T12:42:43.583Z,99113.41
2023-02-04T12:45:11.624Z,99109.13
2023-02-04T12:47:38.245Z,99112.34
2023-02-04T12:50:05.990Z,99096.00
2023-02-04T12:52:32.684Z,99086.66
2023-02-04T12:55:01.299Z,99068.09
2023-02-04T12:57:27.914Z,99075.53
2023-02-04T12:59:57.834Z,99074.78
2023-02-04T13:02:24.431Z,99075.88
2023-02-04T13:04:51.301Z,99082.28
2023-02-04T13:07:18.205Z,99107.44
2023-02-04T13:09:47.612Z,99076.75
2023-02-04T13:12:14.863Z,99075.69
2023-02-04T13:14:44.743Z,99085.97
2023-02-04T13:17:11.595Z,99099.41
2023-02-04T13:19:38.256Z,99081.19
2023-02-04T13:22:05.148Z,99114.41
2023-02-04T13:24:31.767Z,99060.25
2023-02-04T13:26:58.327Z,99117.91
2023-02-04T13:29:25.029Z,99075.81
2023-02-04T13:31:52.181Z,99060.44
2023-02-04T13:34:19.405Z,99098.88
2023-02-04T13:36:46.108Z,99052.59
2023-02-04T13:39:12.750Z,99041.00
2023-02-04T13:41:39.458Z,99101.66
2023-02-04T13:44:05.959Z,99106.69
2023-02-04T13:46:33.549Z,99100.03
2023-02-04T13:49:00.376Z,99078.94
2023-02-04T13:51:26.976Z,99079.50
2023-02-04T13:53:53.520Z,99113.38
2023-02-04T13:56:20.183Z,99071.59
2023-02-04T13:58:46.664Z,99117.41
2023-02-04T14:01:14.502Z,99079.50
2023-02-04T14:03:42.728Z,99060.22
2023-02-04T14:06:09.604Z,99116.03
2023-02-04T14:08:36.219Z,99084.09
2023-02-04T14:11:02.999Z,99115.94
2023-02-04T14:13:29.597Z,99075.94
2023-02-04T14:15:56.430Z,99074.25
2023-02-04T14:18:23.068Z,99060.13
2023-02-04T14:20:49.568Z,99121.69
2023-02-04T14:23:16.194Z,99065.75
2023-02-04T14:25:44.218Z,99075.91
2023-02-04T14:28:10.928Z,99057.41
2023-02-04T14:30:38.053Z,99074.38
2023-02-04T14:33:04.672Z,99064.91
2023-02-04T14:35:31.700Z,99129.94
2023-02-04T14:37:58.852Z,99060.97
2023-02-04T14:40:25.565Z,99072.19
2023-02-04T14:42:52.514Z,99086.75
2023-02-04T14:45:19.224Z,99151.06
2023-02-04T14:47:45.894Z,99111.00
2023-02-04T14:50:17.414Z,99066.75
2023-02-04T14:52:44.043Z,99090.59
2023-02-04T14:55:12.738Z,99056.00
2023-02-04T14:57:39.370Z,99124.91
2023-02-04T15:00:07.118Z,99116.44
2023-02-04T15:02:33.907Z,99107.59
2023-02-04T15:05:00.681Z,99094.50
2023-02-04T15:07:27.389Z,99144.00
2023-02-04T15:09:54.015Z,99093.56
2023-02-04T15:12:20.998Z,99099.19
2023-02-04T15:14:47.485Z,99179.50
2023-02-04T15:17:14.282Z,99153.06
2023-02-04T15:19:40.996Z,99143.56
2023-02-04T15:22:08.118Z,99087.84
2023-02-04T15:24:34.548Z,99188.38
2023-02-04T15:27:01.148Z,99119.78
2023-02-04T15:29:27.961Z,99158.53
2023-02-04T15:31:56.178Z,99183.88
2023-02-04T15:34:23.067Z,99160.50
2023-02-04T15:36:49.734Z,99144.28
2023-02-04T15:39:16.333Z,99124.66
2023-02-04T15:41:42.904Z,99203.41
2023-02-04T15:44:09.596Z,99133.78
2023-02-04T15:46:36.447Z,99118.41
2023-02-04T15:49:03.250Z,99208.47
2023-02-04T15:51:30.128Z,99157.03
2023-02-04T15:53:56.798Z,99149.09
2023-02-04T15:56:23.464Z,99159.03
2023-02-04T15:58:50.046Z,99187.16
2023-02-04T16:01:16.881Z,99210.00
2023-02-04T16:03:47.158Z,99225.41
2023-02-04T16:06:13.773Z,99230.97
2023-02-04T16:08:40.412Z,99241.34
2023-02-04T16:11:07.004Z,99165.88
2023-02-04T16:13:33.581Z,99178.03
2023-02-04T16:16:00.564Z,99255.31
2023-02-04T16:18:27.105Z,99256.81
2023-02-04T16:20:53.761Z,99227.91
2023-02-04T16:23:20.333Z,99267.31
2023-02-04T16:25:47.037Z,99244.75
2023-02-04T16:28:13.672Z,99220.34
2023-02-04T16:30:40.425Z,99221.25
2023-02-04T16:33:07.196Z,99238.75
2023-02-04T16:36:04.578Z,99301.56
2023-02-04T16:38:31.635Z,99318.38
2023-02-04T16:40:59.072Z,99309.56
2023-02-04T16:43:28.024Z,99308.84
2023-02-04T16:45:54.569Z,99289.53
2023-02-04T16:48:21.429Z,99329.22
2023-02-04T16:50:48.063Z,99304.16
2023-02-04T16:53:17.478Z,99325.03
2023-02-04T16:55:44.560Z,99331.56
2023-02-04T16:58:12.553Z,99257.31
2023-02-04T17:00:41.993Z,99348.44
2023-02-04T17:03:09.615Z,99312.59
2023-02-04T17:05:36.713Z,99360.53
2023-02-04T17:08:03.636Z,99373.22
2023-02-04T17:10:48.846Z,99344.03
2023-02-04T17:13:15.712Z,99373.41
2023-02-04T17:15:42.294Z,99386.31
2023-02-04T17:18:09.089Z,99355.38
2023-02-04T17:20:35.736Z,99365.66
2023-02-04T17:23:02.402Z,99369.16
2023-02-04T17:25:28.936Z,99321.59
2023-02-04T17:27:56.770Z,99388.13
2023-02-04T17:30:23.624Z,99405.81
2023-02-04T17:32:50.182Z,99405.97
2023-02-04T17:35:17.331Z,99415.56
2023-02-04T17:37:44.222Z,99428.41
2023-02-04T17:40:14.308Z,99431.56
2023-02-04T17:42:41.127Z,99363.38
2023-02-04T17:45:10.542Z,99413.06
2023-02-04T17:47:38.412Z,99392.03
2023-02-04T17:50:11.097Z,99427.03
2023-02-04T17:52:38.271Z,99447.41
2023-02-04T17:55:28.876Z,99450.56
2023-02-04T17:57:59.347Z,99444.00
2023-02-04T18:00:30.980Z,99454.59
2023-02-04T18:02:58.218Z,99466.81
2023-02-04T18:05:27.689Z,99473.38
2023-02-04T18:08:05.761Z,99470.88
2023-02-04T18:10:35.898Z,99464.50
2023-02-04T18:13:11.466Z,99477.34
2023-02-04T18:15:38.743Z,99481.13
2023-02-04T18:18:19.661Z,99467.91
2023-02-04T18:20:46.756Z,99487.72
2023-02-04T18:23:19.226Z,99476.16
2023-02-04T18:25:48.439Z,99451.44
2023-02-04T18:28:20.873Z,99506.13
2023-02-04T18:30:52.914Z,99512.97
2023-02-04T18:33:23.012Z,99506.97
2023-02-04T18:35:51.619Z,99480.28
2023-02-04T18:38:27.678Z,99514.78
2023-02-04T18:41:17.664Z,99526.91
2023-02-04T18:43:50.465Z,99503.09
2023-02-04T18:46:24.661Z,99532.94
2023-02-04T18:48:57.024Z,99550.22
2023-02-04T18:51:27.257Z,99522.72
2023-02-04T18:54:01.833Z,99560.19
2023-02-04T18:56:34.883Z,99544.75
2023-02-04T18:59:01.673Z,99562.91
2023-02-04T19:01:28.339Z,99572.84
2023-02-04T19:03:58.841Z,99574.56
2023-02-04T19:06:39.899Z,99583.69
2023-02-04T19:09:17.764Z,99517.22
2023-02-04T19:11:47.484Z,99583.03
2023-02-04T19:14:17.634Z,99592.16
2023-02-04T19:16:45.132Z,99604.69
2023-02-04T19:19:39.030Z,99602.41
2023-02-04T19:22:39.496Z,99612.00
2023-02-04T19:25:27.816Z,99612.50
2023-02-04T19:27:59.425Z,99618.53
2023-02-04T19:30:29.043Z,99616.97
2023-02-04T19:32:57.548Z,99619.50
2023-02-04T19:35:29.551Z,99618.63
2023-02-04T19:37:57.087Z,99624.47
2023-02-04T19:40:37.982Z,99624.16
2023-02-04T19:43:21.149Z,99627.06
2023-02-04T19:45:50.903Z,99633.03
2023-02-04T19:48:27.119Z,99631.88
2023-02-04T19:50:53.950Z,99628.69
2023-02-04T19:53:22.979Z,99646.16
2023-02-04T19:55:54.146Z,99637.09
2023-02-04T19:58:41.489Z,99609.19
2023-02-04T20:01:19.405Z,99648.63
2023-02-04T20:03:47.924Z,99646.75
2023-02-04T20:06:29.979Z,99664.72
2023-02-04T20:09:06.506Z,99669.06
2023-02-04T20:11:33.100Z,99662.84
2023-02-04T20:14:12.401Z,99672.56
2023-02-04T20:16:40.697Z,99671.03
2023-02-04T20:19:24.128Z,99662.19
2023-02-04T20:22:18.832Z,99677.50
2023-02-04T20:24:46.733Z,99690.84
2023-02-04T20:27:27.193Z,99695.84
2023-02-04T20:30:13.973Z,99705.19
2023-02-04T20:32:42.914Z,99711.09
2023-02-04T20:35:09.392Z,99716.91
2023-02-04T20:37:36.180Z,99691.91
2023-02-04T20:40:32.562Z,99674.88
2023-02-04T20:43:06.367Z,99705.81
2023-02-04T20:45:38.477Z,99723.75
2023-02-04T20:48:17.353Z,99731.44
2023-02-04T20:50:49.076Z,99732.66
2023-02-04T20:53:23.373Z,99731.00
2023-02-04T20:56:06.104Z,99734.22
2023-02-04T20:58:38.467Z,99740.56
2023-02-04T21:01:33.802Z,99743.84
2023-02-04T21:04:18.619Z,99753.31
2023-02-04T21:06:46.085Z,99749.56
2023-02-04T21:09:28.640Z,99760.53
2023-02-04T21:11:56.568Z,99764.38
2023-02-04T21:14:24.359Z,99769.56
2023-02-04T21:16:51.434Z,99762.56
2023-02-04T21:19:18.595Z,99770.97
2023-02-04T21:21:45.218Z,99734.72
2023-02-04T21:24:12.023Z,99758.13
2023-02-04T21:26:38.872Z,99788.81
2023-02-04T21:29:05.753Z,99792.75
2023-02-04T21:31:32.928Z,99798.25
2023-02-04T21:33:59.920Z,99790.09
2023-02-04T21:36:27.841Z,99799.50
2023-02-04T21:38:55.579Z,99799.81
2023-02-04T21:41:22.962Z,99765.84
2023-02-04T21:43:50.510Z,99802.50
2023-02-04T21:46:17.884Z,99811.03
2023-02-04T21:48:44.819Z,99808.13
2023-02-04T21:51:12.788Z,99800.16
2023-02-04T21:53:39.808Z,99796.88
2023-02-04T21:56:08.047Z,99816.22
2023-02-04T21:58:34.857Z,99816.31
2023-02-04T22:01:01.893Z,99813.38
2023-02-04T22:03:28.642Z,99812.59
2023-02-04T22:05:55.284Z,99834.50
2023-02-04T22:08:22.373Z,99834.56
2023-02-04T22:10:48.988Z,99817.28
2023-02-04T22:13:15.561Z,99781.22
2023-02-04T22:15:42.196Z,99865.88
2023-02-04T22:18:09.219Z,99844.47
2023-02-04T22:20:37.091Z,99851.53
2023-02-04T22:23:04.616Z,99874.59
2023-02-04T22:25:31.250Z,99880.25
2023-02-04T22:27:57.961Z,99879.03
2023-02-04T22:30:24.615Z,99887.34
2023-02-04T22:32:51.172Z,99876.97
2023-02-04T22:35:18.139Z,99855.09
2023-02-04T22:37:44.729Z,99893.81
2023-02-04T22:40:12.254Z,99907.97
2023-02-04T22:42:38.975Z,99915.19
2023-02-04T22:45:06.163Z,99891.16
2023-02-04T22:47:32.700Z,99911.31
2023-02-04T22:49:59.303Z,99935.88
2023-02-04T22:52:26.046Z,99940.81
2023-02-04T22:54:52.868Z,99912.28
2023-02-04T22:57:19.522Z,99955.88
2023-02-04T22:59:46.212Z,99959.69
2023-02-04T23:02:12.861Z,99956.47
2023-02-04T23:04:39.480Z,99967.44
2023-02-04T23:07:06.140Z,99957.25
2023-02-04T23:09:32.944Z,99967.09
2023-02-04T23:12:12.527Z,100007.34
2023-02-04T23:14:44.762Z,99994.63
2023-02-04T23:17:12.154Z,100031.06
2023-02-04T23:19:39.175Z,100042.09
2023-02-04T23:22:06.905Z,100031.97
2023-02-04T23:24:34.241Z,100014.44
2023-02-04T23:27:01.515Z,100029.75
2023-02-04T23:29:32.038Z,100058.00
2023-02-04T23:31:58.809Z,100029.47
2023-02-04T23:34:25.357Z,100061.22
2023-02-04T23:36:52.076Z,100077.78
2023-02-04T23:39:23.128Z,100058.72
2023-02-04T23:41:50.190Z,100084.56
2023-02-04T23:44:17.967Z,100066.31
2023-02-04T23:46:44.866Z,100097.06
2023-02-04T23:49:11.548Z,100085.09
2023-02-04T23:51:38.317Z,100102.88
2023-02-04T23:54:05.410Z,100113.94
2023-02-04T23:56:32.194Z,100119.66
2023-02-04T23:58:58.980Z,100121.47
